Decoded Metar for KI43 ( in ) (IATA:) | Meteo·Mobile Aviation Weather
aviador You're here:

KI43 Decoded Metar

in
Report Time2019-10-18 13:35:00
UTC Time2019-10-18 13:37:20
Flight Rules vfr VFR
WindCalm
Visibility9999 m
Phenomena:N/A
Clouds:N/A
Expected CloudBase > 400 ft AGL from Temp-Dew spread
CeilingNone
Temp04°C
Dew Point03°C (93% RH)
AAT2.5°C
QNH1021 hPa
Raw Report
KI43 181335Z AUTO 00000KT 10SM CLR 04/03 A3014 RMK AO2=

Extra information for KI43:More info

Social comments